createdAt,value
2023-02-19T00:02:07.866Z,14.43
2023-02-19T00:04:34.720Z,17.38
2023-02-19T00:07:01.664Z,13.40
2023-02-19T00:09:28.527Z,15.23
2023-02-19T00:11:55.256Z,13.70
2023-02-19T00:14:22.442Z,14.77
2023-02-19T00:16:49.516Z,14.60
2023-02-19T00:19:19.792Z,11.50
2023-02-19T00:21:47.775Z,12.40
2023-02-19T00:24:15.487Z,14.35
2023-02-19T00:26:44.880Z,12.60
2023-02-19T00:29:21.915Z,13.07
2023-02-19T00:31:49.511Z,12.57
2023-02-19T00:34:16.470Z,13.45
2023-02-19T00:36:44.360Z,14.93
2023-02-19T00:39:15.719Z,12.48
2023-02-19T00:41:43.187Z,10.93
2023-02-19T00:44:12.029Z,10.70
2023-02-19T00:46:46.408Z,12.90
2023-02-19T00:49:22.738Z,17.23
2023-02-19T00:51:52.394Z,13.70
2023-02-19T00:54:20.348Z,15.00
2023-02-19T00:56:47.283Z,16.42
2023-02-19T00:59:15.061Z,19.75
2023-02-19T01:01:44.697Z,14.13
2023-02-19T01:04:12.504Z,11.00
2023-02-19T01:06:39.314Z,15.70
2023-02-19T01:09:07.701Z,14.23
2023-02-19T01:11:34.823Z,12.93
2023-02-19T01:14:03.541Z,17.63
2023-02-19T01:16:31.061Z,17.00
2023-02-19T01:18:58.159Z,13.10
2023-02-19T01:21:27.736Z,14.07
2023-02-19T01:23:55.516Z,15.32
2023-02-19T01:26:30.992Z,12.32
2023-02-19T01:29:01.055Z,12.55
2023-02-19T01:31:29.185Z,16.80
2023-02-19T01:34:00.304Z,15.95
2023-02-19T01:36:29.163Z,11.60
2023-02-19T01:38:56.054Z,14.50
2023-02-19T01:41:25.657Z,13.57
2023-02-19T01:44:11.317Z,16.60
2023-02-19T01:46:40.725Z,17.63
2023-02-19T01:49:25.949Z,13.80
2023-02-19T01:52:04.417Z,12.10
2023-02-19T01:54:37.490Z,12.65
2023-02-19T01:57:11.157Z,11.98
2023-02-19T01:59:38.509Z,13.10
2023-02-19T02:02:06.547Z,11.00
2023-02-19T02:04:35.139Z,13.18
2023-02-19T02:07:26.377Z,11.10
2023-02-19T02:10:12.598Z,13.98
2023-02-19T02:12:39.471Z,11.45
2023-02-19T02:15:07.641Z,9.70
2023-02-19T02:18:24.967Z,10.95
2023-02-19T02:21:14.062Z,9.93
2023-02-19T02:24:24.844Z,10.82
2023-02-19T02:27:26.657Z,12.48
2023-02-19T02:30:32.159Z,13.80
2023-02-19T02:33:32.265Z,14.60
2023-02-19T02:36:14.673Z,9.40
2023-02-19T02:38:46.201Z,13.93
2023-02-19T02:41:15.608Z,13.10
2023-02-19T02:43:42.573Z,15.88
2023-02-19T02:46:27.897Z,9.32
2023-02-19T02:49:11.678Z,12.57
2023-02-19T02:51:49.442Z,9.93
2023-02-19T02:54:53.211Z,11.05
2023-02-19T02:57:22.260Z,10.52
2023-02-19T02:59:53.524Z,10.02
2023-02-19T03:02:30.043Z,12.85
2023-02-19T03:05:41.322Z,9.05
2023-02-19T03:08:23.900Z,10.50
2023-02-19T03:10:59.402Z,9.15
2023-02-19T03:13:56.833Z,12.25
2023-02-19T03:16:48.768Z,11.43
2023-02-19T03:19:20.273Z,12.02
2023-02-19T03:22:10.737Z,11.05
2023-02-19T03:25:21.600Z,14.43
2023-02-19T03:27:51.489Z,15.82
2023-02-19T03:30:25.291Z,13.07
2023-02-19T03:33:00.258Z,12.27
2023-02-19T03:35:33.555Z,7.97
2023-02-19T03:38:23.133Z,10.40
2023-02-19T03:41:16.870Z,12.88
2023-02-19T03:44:24.735Z,9.70
2023-02-19T03:47:10.156Z,11.02
2023-02-19T03:50:01.430Z,15.35
2023-02-19T03:52:54.365Z,12.93
2023-02-19T03:55:59.333Z,10.30
2023-02-19T03:59:00.260Z,9.95
2023-02-19T04:02:10.686Z,11.05
2023-02-19T04:05:14.278Z,9.50
2023-02-19T04:07:47.899Z,16.40
2023-02-19T04:10:19.158Z,9.90
2023-02-19T04:13:09.154Z,14.65
2023-02-19T04:15:40.021Z,14.90
2023-02-19T04:18:16.768Z,12.52
2023-02-19T04:20:48.078Z,9.57
2023-02-19T04:23:22.339Z,15.23
2023-02-19T04:25:54.977Z,10.55
2023-02-19T04:28:22.184Z,9.77
2023-02-19T04:30:49.258Z,14.30
2023-02-19T04:33:16.245Z,9.18
2023-02-19T04:35:43.128Z,13.25
2023-02-19T04:38:10.182Z,8.93
2023-02-19T04:40:37.011Z,13.10
2023-02-19T04:43:03.839Z,14.52
2023-02-19T04:45:30.751Z,13.85
2023-02-19T04:47:58.808Z,11.80
2023-02-19T04:50:26.028Z,11.27
2023-02-19T04:52:52.793Z,8.05
2023-02-19T04:55:19.712Z,13.02
2023-02-19T04:57:46.544Z,11.20
2023-02-19T05:00:13.851Z,16.17
2023-02-19T05:02:40.806Z,12.50
2023-02-19T05:05:08.088Z,12.13
2023-02-19T05:07:34.927Z,14.75
2023-02-19T05:10:01.798Z,11.43
2023-02-19T05:12:31.091Z,12.85
2023-02-19T05:14:58.104Z,9.35
2023-02-19T05:17:24.947Z,10.48
2023-02-19T05:19:51.812Z,11.07
2023-02-19T05:22:18.659Z,10.05
2023-02-19T05:24:45.469Z,14.43
2023-02-19T05:27:12.236Z,9.60
2023-02-19T05:29:39.045Z,9.90
2023-02-19T05:32:05.899Z,21.85
2023-02-19T05:34:32.858Z,14.65
2023-02-19T05:36:59.776Z,14.10
2023-02-19T05:39:26.554Z,7.97
2023-02-19T05:41:53.607Z,12.25
2023-02-19T05:44:20.782Z,12.65
2023-02-19T05:46:47.644Z,8.23
2023-02-19T05:49:14.436Z,11.38
2023-02-19T05:51:41.275Z,13.32
2023-02-19T05:54:08.110Z,14.40
2023-02-19T05:56:42.045Z,10.70
2023-02-19T05:59:21.526Z,16.20
2023-02-19T06:01:50.708Z,11.57
2023-02-19T06:04:19.954Z,13.27
2023-02-19T06:06:48.428Z,12.07
2023-02-19T06:09:15.398Z,14.23
2023-02-19T06:11:43.529Z,10.65
2023-02-19T06:14:13.903Z,9.45
2023-02-19T06:16:41.775Z,9.60
2023-02-19T06:19:08.903Z,8.85
2023-02-19T06:21:36.249Z,12.80
2023-02-19T06:24:09.309Z,12.40
2023-02-19T06:26:36.821Z,12.90
2023-02-19T06:29:04.255Z,11.50
2023-02-19T06:31:31.166Z,7.85
2023-02-19T06:33:58.226Z,8.43
2023-02-19T06:36:25.385Z,10.45
2023-02-19T06:38:52.437Z,9.85
2023-02-19T06:41:19.903Z,11.77
2023-02-19T06:43:47.086Z,9.63
2023-02-19T06:46:14.387Z,12.88
2023-02-19T06:48:44.121Z,11.23
2023-02-19T06:51:22.590Z,9.63
2023-02-19T06:53:49.893Z,10.18
2023-02-19T06:56:31.289Z,11.10
2023-02-19T06:59:04.078Z,11.27
2023-02-19T07:01:33.839Z,10.32
2023-02-19T07:04:00.917Z,9.70
2023-02-19T07:06:29.237Z,12.05
2023-02-19T07:08:58.045Z,14.50
2023-02-19T07:11:26.212Z,14.18
2023-02-19T07:14:01.302Z,12.70
2023-02-19T07:16:28.661Z,11.52
2023-02-19T07:19:00.386Z,15.38
2023-02-19T07:21:28.713Z,15.57
2023-02-19T07:23:55.932Z,10.98
2023-02-19T07:26:23.721Z,18.90
2023-02-19T07:28:52.455Z,13.65
2023-02-19T07:31:24.006Z,13.30
2023-02-19T07:33:51.767Z,13.15
2023-02-19T07:36:20.655Z,12.90
2023-02-19T07:38:47.761Z,12.10
2023-02-19T07:41:14.654Z,12.95
2023-02-19T07:43:41.544Z,11.35
2023-02-19T07:46:13.842Z,12.57
2023-02-19T07:48:43.031Z,12.02
2023-02-19T07:51:16.617Z,13.75
2023-02-19T07:53:43.464Z,10.50
2023-02-19T07:56:12.730Z,14.32
2023-02-19T07:58:40.878Z,13.85
2023-02-19T08:01:17.112Z,13.38
2023-02-19T08:03:44.825Z,12.93
2023-02-19T08:06:12.333Z,9.20
2023-02-19T08:08:40.021Z,12.23
2023-02-19T08:11:26.064Z,13.32
2023-02-19T08:13:53.927Z,12.07
2023-02-19T08:16:36.846Z,10.77
2023-02-19T08:19:07.902Z,11.60
2023-02-19T08:21:34.652Z,11.27
2023-02-19T08:24:01.513Z,9.93
2023-02-19T08:26:28.378Z,12.68
2023-02-19T08:28:55.158Z,11.90
2023-02-19T08:31:22.121Z,12.15
2023-02-19T08:33:49.161Z,11.35
2023-02-19T08:36:15.969Z,8.77
2023-02-19T08:38:42.769Z,14.38
2023-02-19T08:41:14.123Z,11.00
2023-02-19T08:43:42.455Z,12.18
2023-02-19T08:46:11.556Z,13.05
2023-02-19T08:48:39.998Z,15.95
2023-02-19T08:51:11.636Z,14.60
2023-02-19T08:53:40.368Z,15.50
2023-02-19T08:56:09.051Z,15.93
2023-02-19T08:58:37.383Z,13.23
2023-02-19T09:01:11.381Z,15.48
2023-02-19T09:03:38.424Z,15.93
2023-02-19T09:06:05.489Z,18.83
2023-02-19T09:08:32.368Z,17.50
2023-02-19T09:11:04.904Z,17.67
2023-02-19T09:13:31.799Z,16.77
2023-02-19T09:15:58.774Z,16.80
2023-02-19T09:18:26.816Z,15.70
2023-02-19T09:20:53.680Z,14.23
2023-02-19T09:23:20.586Z,18.13
2023-02-19T09:25:47.477Z,16.10
2023-02-19T09:28:14.379Z,12.02
2023-02-19T09:30:41.271Z,12.20
2023-02-19T09:33:08.045Z,15.80
2023-02-19T09:35:39.128Z,9.05
2023-02-19T09:38:06.020Z,13.18
2023-02-19T09:40:35.533Z,13.75
2023-02-19T09:43:07.602Z,13.55
2023-02-19T09:45:37.896Z,14.07
2023-02-19T09:48:06.183Z,8.88
2023-02-19T09:50:41.078Z,13.07
2023-02-19T09:53:41.220Z,8.80
2023-02-19T09:56:09.293Z,10.40
2023-02-19T09:58:48.588Z,9.95
2023-02-19T10:01:16.303Z,9.68
2023-02-19T10:03:49.035Z,7.38
2023-02-19T10:06:23.670Z,9.77
2023-02-19T10:09:15.459Z,8.20
2023-02-19T10:11:42.750Z,8.25
2023-02-19T10:14:36.956Z,8.80
2023-02-19T10:17:06.723Z,8.82
2023-02-19T10:19:36.260Z,7.20
2023-02-19T10:22:04.656Z,11.00
2023-02-19T10:24:31.894Z,9.70
2023-02-19T10:26:58.922Z,6.85
2023-02-19T10:29:27.148Z,8.45
2023-02-19T10:32:18.153Z,5.82
2023-02-19T10:34:45.101Z,6.05
2023-02-19T10:37:18.572Z,5.63
2023-02-19T10:39:50.696Z,4.95
2023-02-19T10:42:22.291Z,6.93
2023-02-19T10:44:58.658Z,4.30
2023-02-19T10:47:28.647Z,5.22
2023-02-19T10:50:02.097Z,4.53
2023-02-19T10:52:36.131Z,7.05
2023-02-19T10:55:31.678Z,4.80
2023-02-19T10:58:15.110Z,5.55
2023-02-19T11:00:41.954Z,4.63
2023-02-19T11:03:21.166Z,3.45
2023-02-19T11:06:01.103Z,5.43
2023-02-19T11:08:30.228Z,4.95
2023-02-19T11:10:57.153Z,3.38
2023-02-19T11:13:38.023Z,2.60
2023-02-19T11:16:05.516Z,2.92
2023-02-19T11:18:34.897Z,3.50
2023-02-19T11:21:05.488Z,4.10
2023-02-19T11:23:36.557Z,5.00
2023-02-19T11:26:16.470Z,7.22
2023-02-19T11:28:44.422Z,3.17
2023-02-19T11:31:20.180Z,4.70
2023-02-19T11:34:15.734Z,3.70
2023-02-19T11:36:43.006Z,4.95
2023-02-19T11:39:16.027Z,3.40
2023-02-19T11:42:12.004Z,4.82
2023-02-19T11:45:28.474Z,3.60
2023-02-19T11:48:11.891Z,4.50
2023-02-19T11:51:15.793Z,2.85
2023-02-19T11:54:30.263Z,2.38
2023-02-19T11:57:17.964Z,3.35
2023-02-19T12:00:11.890Z,2.70
2023-02-19T12:02:56.088Z,4.07
2023-02-19T12:06:16.694Z,3.53
2023-02-19T12:08:55.066Z,3.50
2023-02-19T12:11:35.357Z,3.40
2023-02-19T12:14:25.595Z,3.95
2023-02-19T12:17:00.092Z,3.70
2023-02-19T12:20:01.559Z,3.58
2023-02-19T12:22:36.298Z,3.13
2023-02-19T12:25:28.460Z,3.15
2023-02-19T12:28:20.074Z,3.78
2023-02-19T12:31:06.288Z,5.35
2023-02-19T12:33:59.681Z,3.17
2023-02-19T12:37:20.662Z,3.90
2023-02-19T12:39:54.776Z,3.22
2023-02-19T12:42:52.942Z,5.60
2023-02-19T12:45:36.791Z,3.20
2023-02-19T12:48:29.675Z,5.28
2023-02-19T12:51:22.638Z,5.00
2023-02-19T12:54:02.232Z,3.08
2023-02-19T12:56:47.744Z,2.65
2023-02-19T12:59:35.694Z,4.78
2023-02-19T13:02:23.681Z,2.85
2023-02-19T13:05:22.829Z,2.75
2023-02-19T13:08:12.864Z,3.58
2023-02-19T13:11:01.002Z,2.97
2023-02-19T13:13:41.948Z,3.42
2023-02-19T13:16:19.599Z,3.45
2023-02-19T13:18:50.678Z,4.00
2023-02-19T13:21:40.679Z,2.58
2023-02-19T13:24:15.696Z,2.50
2023-02-19T13:27:32.441Z,3.08
2023-02-19T13:30:15.913Z,3.60
2023-02-19T13:33:00.707Z,3.25
2023-02-19T13:36:06.077Z,4.30
2023-02-19T13:38:44.754Z,3.15
2023-02-19T13:41:28.453Z,3.22
2023-02-19T13:44:06.132Z,2.95
2023-02-19T13:46:43.529Z,2.60
2023-02-19T13:49:28.382Z,2.95
2023-02-19T13:52:03.602Z,4.40
2023-02-19T13:54:36.187Z,2.33
2023-02-19T13:57:28.604Z,5.78
2023-02-19T13:59:58.265Z,3.13
2023-02-19T14:02:32.139Z,3.60
2023-02-19T14:05:10.988Z,3.15
2023-02-19T14:07:48.688Z,1.92
2023-02-19T14:10:54.211Z,2.15
2023-02-19T14:13:55.757Z,5.38
2023-02-19T14:16:33.201Z,3.67
2023-02-19T14:19:00.401Z,3.10
2023-02-19T14:21:40.340Z,3.33
2023-02-19T14:24:14.420Z,3.72
2023-02-19T14:26:42.112Z,3.75
2023-02-19T14:29:14.750Z,3.20
2023-02-19T14:31:45.986Z,4.32
2023-02-19T14:34:25.069Z,3.83
2023-02-19T14:37:01.582Z,3.05
2023-02-19T14:39:37.791Z,2.78
2023-02-19T14:42:27.023Z,3.83
2023-02-19T14:44:59.506Z,2.03
2023-02-19T14:47:30.898Z,1.55
2023-02-19T14:50:14.332Z,1.10
2023-02-19T14:52:47.897Z,1.40
2023-02-19T14:55:30.435Z,2.53
2023-02-19T14:58:01.200Z,2.50
2023-02-19T15:00:39.155Z,1.85
2023-02-19T15:03:22.643Z,4.20
2023-02-19T15:06:17.846Z,1.23
2023-02-19T15:08:50.688Z,1.27
2023-02-19T15:11:32.257Z,2.30
2023-02-19T15:14:04.879Z,4.00
2023-02-19T15:16:35.632Z,4.30
2023-02-19T15:19:08.749Z,2.75
2023-02-19T15:21:44.413Z,4.82
2023-02-19T15:24:15.095Z,7.80
2023-02-19T15:26:46.906Z,6.90
2023-02-19T15:29:27.416Z,5.57
2023-02-19T15:32:01.204Z,3.28
2023-02-19T15:34:31.655Z,2.28
2023-02-19T15:37:06.914Z,5.18
2023-02-19T15:39:46.515Z,1.98
2023-02-19T15:42:23.048Z,2.38
2023-02-19T15:45:19.624Z,2.65
2023-02-19T15:47:56.128Z,2.35
2023-02-19T15:50:29.961Z,2.00
2023-02-19T15:53:30.126Z,2.92
2023-02-19T15:56:28.268Z,4.65
2023-02-19T15:59:04.187Z,2.60
2023-02-19T16:01:40.943Z,4.55
2023-02-19T16:04:17.498Z,3.35
2023-02-19T16:06:58.936Z,6.25
2023-02-19T16:09:37.787Z,6.68
2023-02-19T16:12:24.258Z,5.60
2023-02-19T16:14:51.209Z,8.07
2023-02-19T16:17:23.003Z,5.50
2023-02-19T16:20:03.442Z,5.93
2023-02-19T16:22:40.302Z,5.45
2023-02-19T16:25:21.296Z,7.38
2023-02-19T16:27:48.237Z,4.72
2023-02-19T16:30:25.238Z,5.95
2023-02-19T16:33:20.521Z,5.53
2023-02-19T16:35:49.507Z,5.15
2023-02-19T16:38:19.007Z,5.30
2023-02-19T16:41:10.946Z,4.68
2023-02-19T16:43:43.627Z,3.08
2023-02-19T16:46:12.825Z,3.78
2023-02-19T16:48:40.065Z,4.50
2023-02-19T16:51:08.913Z,3.70
2023-02-19T16:53:35.904Z,6.68
2023-02-19T16:56:02.781Z,5.85
2023-02-19T16:58:29.635Z,6.88
2023-02-19T17:00:57.315Z,2.25
2023-02-19T17:03:25.493Z,3.15
2023-02-19T17:05:53.192Z,3.95
2023-02-19T17:08:42.311Z,1.70
2023-02-19T17:11:15.835Z,2.72
2023-02-19T17:13:47.470Z,2.13
2023-02-19T17:16:27.146Z,1.73
2023-02-19T17:18:55.636Z,2.47
2023-02-19T17:21:31.823Z,2.83
2023-02-19T17:23:58.585Z,5.40
2023-02-19T17:26:29.047Z,3.85
2023-02-19T17:29:04.207Z,3.50
2023-02-19T17:31:31.109Z,2.95
2023-02-19T17:33:58.924Z,2.83
2023-02-19T17:36:31.449Z,3.75
2023-02-19T17:39:00.200Z,3.65
2023-02-19T17:41:27.920Z,2.00
2023-02-19T17:43:55.440Z,2.75
2023-02-19T17:46:25.733Z,4.50
2023-02-19T17:48:53.920Z,1.92
2023-02-19T17:51:21.865Z,2.45
2023-02-19T17:53:48.753Z,3.15
2023-02-19T17:56:22.516Z,2.20
2023-02-19T17:58:49.999Z,1.80
2023-02-19T18:01:16.888Z,2.28
2023-02-19T18:03:44.446Z,4.30
2023-02-19T18:06:11.951Z,4.18
2023-02-19T18:08:39.368Z,3.15
2023-02-19T18:11:07.730Z,2.22
2023-02-19T18:13:34.682Z,2.22
2023-02-19T18:16:01.592Z,1.42
2023-02-19T18:18:28.449Z,2.17
2023-02-19T18:20:55.223Z,2.05
2023-02-19T18:23:22.024Z,3.40
2023-02-19T18:25:48.785Z,2.20
2023-02-19T18:28:15.966Z,2.35
2023-02-19T18:30:42.916Z,16.30
2023-02-19T18:33:13.344Z,12.48
2023-02-19T18:35:40.575Z,5.95
2023-02-19T18:38:07.555Z,4.05
2023-02-19T18:40:35.237Z,2.70
2023-02-19T18:43:02.080Z,2.17
2023-02-19T18:45:29.582Z,1.80
2023-02-19T18:47:56.486Z,2.63
2023-02-19T18:50:23.377Z,3.88
2023-02-19T18:52:50.253Z,3.05
2023-02-19T18:55:17.243Z,2.95
2023-02-19T18:57:45.146Z,2.13
2023-02-19T19:00:22.730Z,3.20
2023-02-19T19:02:50.604Z,2.47
2023-02-19T19:05:22.730Z,2.25
2023-02-19T19:07:59.037Z,2.38
2023-02-19T19:10:27.945Z,1.83
2023-02-19T19:12:54.832Z,3.22
2023-02-19T19:15:22.708Z,2.90
2023-02-19T19:17:49.901Z,2.88
2023-02-19T19:20:22.937Z,2.95
2023-02-19T19:22:52.120Z,2.78
2023-02-19T19:25:21.342Z,2.55
2023-02-19T19:27:50.642Z,3.40
2023-02-19T19:30:19.921Z,4.38
2023-02-19T19:32:52.444Z,3.90
2023-02-19T19:35:21.342Z,2.47
2023-02-19T19:37:48.810Z,2.63
2023-02-19T19:40:17.690Z,6.57
2023-02-19T19:42:44.796Z,7.40
2023-02-19T19:45:12.430Z,4.20
2023-02-19T19:47:39.341Z,6.03
2023-02-19T19:50:06.594Z,6.97
2023-02-19T19:52:33.457Z,6.80
2023-02-19T19:55:00.388Z,6.53
2023-02-19T19:57:27.197Z,7.20
2023-02-19T19:59:54.041Z,3.88
2023-02-19T20:02:21.221Z,9.68
2023-02-19T20:04:48.159Z,5.35
2023-02-19T20:07:15.672Z,5.15
2023-02-19T20:09:47.070Z,3.75
2023-02-19T20:12:13.896Z,4.72
2023-02-19T20:14:45.891Z,2.88
2023-02-19T20:17:13.444Z,4.70
2023-02-19T20:19:40.460Z,5.40
2023-02-19T20:22:07.342Z,5.68
2023-02-19T20:24:34.246Z,6.38
2023-02-19T20:27:02.565Z,5.43
2023-02-19T20:29:33.006Z,5.03
2023-02-19T20:32:03.472Z,5.55
2023-02-19T20:34:31.727Z,6.57
2023-02-19T20:36:59.265Z,7.75
2023-02-19T20:39:29.136Z,7.18
2023-02-19T20:41:57.894Z,5.05
2023-02-19T20:44:27.138Z,6.20
2023-02-19T20:46:54.857Z,5.53
2023-02-19T20:49:26.193Z,13.45
2023-02-19T20:52:00.140Z,8.65
2023-02-19T20:54:33.356Z,7.82
2023-02-19T20:57:03.749Z,7.38
2023-02-19T20:59:35.355Z,9.13
2023-02-19T21:02:05.468Z,9.05
2023-02-19T21:04:33.337Z,8.00
2023-02-19T21:07:00.101Z,5.47
2023-02-19T21:09:26.875Z,6.20
2023-02-19T21:11:53.681Z,7.95
2023-02-19T21:14:20.798Z,7.82
2023-02-19T21:16:47.562Z,6.22
2023-02-19T21:19:14.404Z,6.70
2023-02-19T21:21:41.433Z,8.90
2023-02-19T21:24:12.872Z,9.10
2023-02-19T21:26:41.599Z,7.45
2023-02-19T21:29:12.983Z,5.50
2023-02-19T21:31:46.785Z,6.45
2023-02-19T21:34:18.370Z,7.18
2023-02-19T21:36:45.932Z,5.55
2023-02-19T21:39:16.529Z,6.80
2023-02-19T21:41:43.664Z,9.45
2023-02-19T21:44:11.009Z,9.50
2023-02-19T21:46:37.854Z,7.25
2023-02-19T21:49:04.780Z,9.60
2023-02-19T21:51:38.732Z,7.85
2023-02-19T21:54:08.310Z,5.57
2023-02-19T21:56:36.705Z,5.28
2023-02-19T21:59:04.124Z,4.80
2023-02-19T22:01:34.599Z,5.10
2023-02-19T22:04:01.729Z,6.93
2023-02-19T22:06:30.997Z,6.45
2023-02-19T22:08:59.272Z,14.90
2023-02-19T22:11:26.280Z,9.07
2023-02-19T22:13:53.535Z,7.55
2023-02-19T22:16:20.759Z,7.30
2023-02-19T22:18:54.237Z,6.93
2023-02-19T22:21:24.590Z,5.53
2023-02-19T22:23:53.585Z,7.85
2023-02-19T22:26:35.498Z,7.43
2023-02-19T22:29:08.211Z,5.90
2023-02-19T22:31:36.022Z,6.13
2023-02-19T22:34:03.332Z,5.68
2023-02-19T22:36:33.164Z,7.10
2023-02-19T22:39:01.331Z,6.65
2023-02-19T22:41:28.442Z,8.38
2023-02-19T22:43:56.190Z,8.52
2023-02-19T22:46:27.033Z,7.15
2023-02-19T22:48:53.836Z,9.15
2023-02-19T22:51:23.463Z,8.70
2023-02-19T22:53:56.478Z,9.27
2023-02-19T22:56:27.446Z,7.80
2023-02-19T22:58:56.394Z,7.35
2023-02-19T23:01:24.345Z,6.80
2023-02-19T23:03:55.426Z,7.50
2023-02-19T23:06:29.833Z,7.60
2023-02-19T23:09:10.619Z,7.28
2023-02-19T23:11:39.600Z,9.27
2023-02-19T23:14:07.190Z,8.65
2023-02-19T23:16:37.658Z,8.38
2023-02-19T23:19:07.344Z,9.88
2023-02-19T23:21:34.378Z,9.88
2023-02-19T23:24:02.116Z,10.68
2023-02-19T23:26:28.981Z,12.63
2023-02-19T23:28:56.251Z,11.18
2023-02-19T23:31:23.797Z,12.23
2023-02-19T23:33:50.701Z,12.32
2023-02-19T23:36:17.534Z,12.55
2023-02-19T23:38:47.761Z,13.10
2023-02-19T23:41:17.180Z,12.02
2023-02-19T23:43:44.522Z,12.43
2023-02-19T23:46:17.794Z,13.80
2023-02-19T23:48:46.062Z,11.77
2023-02-19T23:51:13.885Z,13.77
2023-02-19T23:53:40.878Z,12.75
2023-02-19T23:56:07.889Z,13.68
2023-02-19T23:58:34.738Z,11.32
